Flight Track Log - Related Links

Times and Time Zones

All times are in EDT time to prevent confusion due to time zone crossing. See the N326KB flight status page for this flight to view local times or setup timezone preferences in your user account.

Time Position Orientation Groundspeed Altitude Reporting Facility
EDT Latitude Longitude Course Direction KTS MPH feet Rate Location/Type
Mon 06:18:44 PM 41.1597 -81.7497 217° Southwest 140 161 6,400  Level Cleveland Center
Mon 06:19:39 PM 41.1344 -81.7850 226° Southwest 150 173 6,400  Level Cleveland Center
Mon 06:20:33 PM 41.1047 -81.8231 224° Southwest 150 173 6,400  Level Cleveland Center
Mon 06:21:28 PM 41.0772 -81.8556 222° Southwest 154 177 6,400  Level Cleveland Center
Mon 06:23:00 PM 41.5159 -81.6850 217° Southwest  Level Estimated
Mon 06:23:00 PM 41.0265 -81.9035 225° Southwest  Level FlightAware Approximate
Mon 06:24:00 PM 41.4963 -81.7044 217° Southwest  Level Estimated
Mon 06:30:00 PM 40.8057 -82.1677 223° Southwest  Level FlightAware Approximate
Mon 06:31:00 PM 40.7748 -82.2063 223° Southwest  Level FlightAware Approximate
Mon 06:32:00 PM 40.7438 -82.2448 223° Southwest  Level FlightAware Approximate
Mon 06:33:00 PM 40.7128 -82.2833 223° Southwest  Level FlightAware Approximate
Mon 06:34:00 PM 40.6818 -82.3217 223° Southwest  Level FlightAware Approximate
Mon 06:35:00 PM 40.6508 -82.3601 223° Southwest  Level FlightAware Approximate
Mon 06:36:00 PM 40.6198 -82.3985 223° Southwest  Level FlightAware Approximate
Mon 06:37:00 PM 40.5887 -82.4368 223° Southwest  Level FlightAware Approximate
Mon 06:38:00 PM 40.5577 -82.4752 223° Southwest  Level FlightAware Approximate
Mon 06:39:00 PM 40.5266 -82.5134 223° Southwest  Level FlightAware Approximate
Mon 06:40:00 PM 40.4955 -82.5517 223° Southwest  Level FlightAware Approximate
Mon 06:40:48 PM 40.4658 -82.6100 224° Southwest 159 183 6,400  Level Indianapolis Center
Mon 06:41:00 PM 40.4648 -82.5903 224° Southwest  Level FlightAware Approximate
Mon 06:41:49 PM 40.4342 -82.6475 222° Southwest 155 178 6,400  Level Indianapolis Center
Mon 06:42:00 PM 40.4342 -82.6291 224° Southwest  Level FlightAware Approximate
Mon 06:42:50 PM 40.4003 -82.6875 222° Southwest 157 181 6,400  Level Indianapolis Center
Mon 06:43:00 PM 40.4035 -82.6679 224° Southwest  Level FlightAware Approximate
Mon 06:43:51 PM 40.3683 -82.7278 224° Southwest 157 181 6,400  Level Indianapolis Center
Mon 06:44:00 PM 40.3729 -82.7067 224° Southwest  Level FlightAware Approximate
Mon 06:44:52 PM 40.3344 -82.7650 220° Southwest 155 178 6,400  Level Indianapolis Center
Mon 06:45:00 PM 40.3423 -82.7455 224° Southwest  Level FlightAware Approximate
Mon 06:45:53 PM 40.3025 -82.8050 224° Southwest 160 184 6,100  Level Indianapolis Center
Mon 06:46:00 PM 40.3116 -82.7842 224° Southwest  Level FlightAware Approximate
Mon 06:47:00 PM 40.2386 -82.8825 223° Southwest  Level FlightAware Approximate
Mon 06:54:00 PM 40.0667 -83.0667 201° Southwest  Level FlightAware Approximate
Mon 06:55:00 PM 40.0798 -83.0732 201° Southwest  Level Estimated
Mon 06:56:00 PM 40.0798 -83.0732 201° Southwest  Level Estimated
Mon 06:57:00 PM 40.0798 -83.0732 201° Southwest  Level Estimated
Mon 06:58:00 PM 40.0798 -83.0732 201° Southwest  Level Estimated
Mon 06:59:00 PM 40.0798 -83.0732 201° Southwest  Level Estimated
Mon 07:00:00 PM 40.0798 -83.0732 201° Southwest  Level Estimated
Mon 07:01:00 PM 40.0798 -83.0732 201° Southwest  Level Estimated
Mon 07:02:00 PM 40.0798 -83.0732 201° Southwest  Level Estimated
Mon 07:03:00 PM 40.0798 -83.0732 201° Southwest  Level Estimated
Mon 07:04:00 PM 40.0798 -83.0732 201° Southwest  Level Estimated
Mon 07:05:00 PM 40.0798 -83.0732 201° Southwest  Level Estimated
Mon 07:06:00 PM 40.0798 -83.0732 201° Southwest  Level Estimated
Mon 07:07:00 PM 40.0798 -83.0732 201° Southwest  Level Estimated
Mon 07:08:00 PM 40.0798 -83.0732 201° Southwest  Level Estimated
Mon 07:09:00 PM 40.0798 -83.0732 201° Southwest  Level Estimated
Mon 07:10:00 PM 40.0798 -83.0732 201° Southwest  Level Estimated
Mon 07:11:00 PM 40.0798 -83.0732 201° Southwest  Level Estimated
Mon 07:12:00 PM 40.0798 -83.0732 201° Southwest  Level Estimated
Mon 07:13:00 PM 40.0798 -83.0732 201° Southwest  Level Estimated
Mon 07:14:00 PM 40.0798 -83.0732 201° Southwest  Level Estimated
Mon 07:15:00 PM 40.0798 -83.0732 201° Southwest  Level Estimated
Mon 07:16:00 PM 40.0798 -83.0732 201° Southwest  Level Estimated
Mon 07:17:00 PM 40.0798 -83.0732 201° Southwest  Level Estimated
Mon 07:18:00 PM 40.0798 -83.0732 201° Southwest  Level Estimated
Mon 07:19:00 PM 40.0798 -83.0732 201° Southwest  Level Estimated
Mon 07:20:00 PM 40.0798 -83.0732 201° Southwest  Level Estimated

Login

Don't have an account? Register now (free) for customized features, flight alerts, and more!